Airport View

Enter AWOS ICAO identifier for current METAR.

ex. KFNL

KRNO 202355Z 05010KT 10SM FEW075 FEW140 19/01 A3005 RMK AO2 SLP148 ACSL DSNT NE THRU SE T01940006 10206 20139 56010

21 Sep 2019 00:33

Phone: 775-324-6659

Other Area AWOS: KRTS - KCXP - KTRK - KMEV

TAF KRNO 202320Z 2100/2124 04009KT P6SM FEW080 FM210400 VRB04KT P6SM SKC FM212100 08007KT P6SM SKC